Observation data for Brownfield on 04/23/2019      Previous  Date  Next       Current Mesonet Observations  Soil Data  Daily Summary Page  Observations in Plain Language
KBWS 230500Z 06012G17KT 14/13 A3004 RMK A01 T01440131  RH  093%=      5-min Rain = 0
KBWS 230505Z 05011KT 15/13 A3004 RMK A01 T01450132  RH  094%=      5-min Rain = 0
KBWS 230510Z 04011KT 14/13 A3004 RMK A01 T01440132  RH  094%=      5-min Rain = 0
KBWS 230515Z 05013KT 14/13 A3004 RMK A01 T01440131  RH  094%=      5-min Rain = 0
KBWS 230520Z 05014KT 14/13 A3004 RMK A01 T01440131  RH  094%=      5-min Rain = 0
KBWS 230525Z 05013KT 14/13 A3004 RMK A01 T01430131  RH  094%=      5-min Rain = 0
KBWS 230530Z 05014KT 14/13 A3003 RMK A01 T01430131  RH  094%=      5-min Rain = 0
KBWS 230535Z 05014KT 14/13 A3003 RMK A01 T01430131  RH  094%=      5-min Rain = 0
KBWS 230540Z 05013KT 14/13 A3003 RMK A01 T01430131  RH  094%=      5-min Rain = 0
KBWS 230545Z 06013KT 14/13 A3003 RMK A01 T01430131  RH  094%=      5-min Rain = 0
KBWS 230550Z 06013KT 14/13 A3003 RMK A01 T01430130  RH  094%=      5-min Rain = 0
KBWS 230555Z 05011KT 14/13 A3003 RMK A01 T01430131  RH  094%=      5-min Rain = 0
KBWS 230600Z 05011KT 14/13 A3003 RMK A01 T01430131  RH  095%=      5-min Rain = 0
KBWS 230605Z 04010KT 14/13 A3003 RMK A01 T01410129  RH  094%=      5-min Rain = 0
KBWS 230610Z 04011KT 14/13 A3003 RMK A01 T01400128  RH  094%=      5-min Rain = 0
KBWS 230615Z 04012KT 14/13 A3003 RMK A01 T01390127  RH  094%=      5-min Rain = 0
KBWS 230620Z 03011KT 14/13 A3004 RMK A01 T01390127  RH  094%=      5-min Rain = 0
KBWS 230625Z 04011KT 14/13 A3004 RMK A01 T01380126  RH  094%=      5-min Rain = 0
KBWS 230630Z 04011KT 14/13 A3004 RMK A01 T01380126  RH  094%=      5-min Rain = 0
KBWS 230635Z 03010G15KT 14/13 A3004 RMK A01 T01380126  RH  094%=      5-min Rain = 0
KBWS 230640Z 04011KT 14/13 A3004 RMK A01 T01380126  RH  094%=      5-min Rain = 0
KBWS 230645Z 04010KT 14/13 A3004 RMK A01 T01380126  RH  094%=      5-min Rain = 0
KBWS 230650Z 04010G15KT 14/13 A3004 RMK A01 T01380126  RH  094%=      5-min Rain = 0
KBWS 230655Z 04011KT 14/13 A3004 RMK A01 T01380126  RH  094%=      5-min Rain = 0
KBWS 230700Z 03010KT 14/13 A3003 RMK A01 T01380126  RH  095%=      5-min Rain = 0.01
KBWS 230705Z 03012KT 14/13 A3002 RMK A01 T01370126  RH  095%=      5-min Rain = 0
KBWS 230710Z 03011KT 14/13 A3002 RMK A01 T01360125  RH  095%=      5-min Rain = 0
KBWS 230715Z 03011KT 14/12 A3003 RMK A01 T01350124  RH  095%=      5-min Rain = 0
KBWS 230720Z 02009G14KT 14/12 A3002 RMK A01 T01350124  RH  095%=      5-min Rain = 0
KBWS 230725Z 01009KT 14/13 A3002 RMK A01 T01360125  RH  095%=      5-min Rain = 0.01
KBWS 230730Z 01011G16KT 14/12 A3002 RMK A01 T01350124  RH  095%=      5-min Rain = 0
KBWS 230735Z 02011KT 13/12 A3002 RMK A01 T01340123  RH  095%=      5-min Rain = 0
KBWS 230740Z 03010KT 14/12 A3002 RMK A01 T01350123  RH  095%=      5-min Rain = 0
KBWS 230745Z 03010KT 13/12 A3002 RMK A01 T01340123  RH  095%=      5-min Rain = 0
KBWS 230750Z 02010KT 13/12 A3002 RMK A01 T01340123  RH  095%=      5-min Rain = 0
KBWS 230755Z 01008KT 13/12 A3003 RMK A01 T01340123  RH  095%=      5-min Rain = 0
KBWS 230800Z 00007KT 13/12 A3003 RMK A01 T01340123  RH  095%=      5-min Rain = 0.01
KBWS 230805Z 33005KT 13/12 A3005 RMK A01 T01330123  RH  095%=      5-min Rain = 0.02
KBWS 230810Z 02006KT 13/12 A3004 RMK A01 T01330122  RH  095%=      5-min Rain = 0.02
KBWS 230815Z 34006KT 13/12 A3004 RMK A01 T01320123  RH  096%=      5-min Rain = 0.03
KBWS 230820Z 02011KT 13/12 A3002 RMK A01 T01310122  RH  096%=      5-min Rain = 0.02
KBWS 230825Z 03013KT 13/12 A30 RMK A01 T01300122  RH  097%=      5-min Rain = 0.01
KBWS 230830Z 01010KT 13/12 A3001 RMK A01 T01290121  RH  097%=      5-min Rain = 0.01
KBWS 230835Z 36008KT 13/12 A3001 RMK A01 T01290121  RH  097%=      5-min Rain = 0
KBWS 230840Z 36009KT 13/12 A3002 RMK A01 T01280121  RH  097%=      5-min Rain = 0.01
KBWS 230845Z 35009KT 13/12 A3002 RMK A01 T01280121  RH  097%=      5-min Rain = 0
KBWS 230850Z 34009KT 13/12 A3002 RMK A01 T01280121  RH  097%=      5-min Rain = 0
KBWS 230855Z 32009G15KT 13/12 A3004 RMK A01 T01280121  RH  097%=      5-min Rain = 0
KBWS 230900Z 34014G22KT 13/12 A3003 RMK A01 T01270119  RH  096%=      5-min Rain = 0
KBWS 230905Z 35013KT 13/12 A3003 RMK A01 T01270117  RH  096%=      5-min Rain = 0
KBWS 230910Z 35012KT 13/12 A3003 RMK A01 T01270117  RH  096%=      5-min Rain = 0
KBWS 230915Z 35011G16KT 13/12 A3003 RMK A01 T01270117  RH  096%=      5-min Rain = 0
KBWS 230920Z 36012KT 13/11 A3003 RMK A01 T01270114  RH  094%=      5-min Rain = 0
KBWS 230925Z 01012KT 13/11 A3003 RMK A01 T01280113  RH  092%=      5-min Rain = 0
KBWS 230930Z 02010G15KT 13/11 A3003 RMK A01 T01280113  RH  093%=      5-min Rain = 0
KBWS 230935Z 02011KT 13/11 A3002 RMK A01 T01280112  RH  092%=      5-min Rain = 0
KBWS 230940Z 02012KT 13/11 A3002 RMK A01 T01290112  RH  091%=      5-min Rain = 0
KBWS 230945Z 02013G18KT 13/11 A3001 RMK A01 T01290112  RH  091%=      5-min Rain = 0
KBWS 230950Z 02013KT 13/11 A3001 RMK A01 T01280112  RH  091%=      5-min Rain = 0
KBWS 230955Z 03013KT 13/11 A30 RMK A01 T01280111  RH  092%=      5-min Rain = 0
KBWS 231000Z 04011KT 13/11 A30 RMK A01 T01270111  RH  092%=      5-min Rain = 0
KBWS 231005Z 04010KT 13/11 A30 RMK A01 T01270111  RH  091%=      5-min Rain = 0
KBWS 231010Z 04009KT 13/11 A30 RMK A01 T01280111  RH  091%=      5-min Rain = 0
KBWS 231015Z 05009KT 13/11 A30 RMK A01 T01280111  RH  091%=      5-min Rain = 0
KBWS 231020Z 05008KT 13/11 A30 RMK A01 T01280113  RH  092%=      5-min Rain = 0
KBWS 231025Z 03008KT 13/11 A3001 RMK A01 T01280112  RH  092%=      5-min Rain = 0
KBWS 231030Z 03007KT 13/11 A3001 RMK A01 T01280111  RH  091%=      5-min Rain = 0
KBWS 231035Z 03007KT 13/11 A3001 RMK A01 T01280111  RH  091%=      5-min Rain = 0
KBWS 231040Z 01007KT 13/11 A3002 RMK A01 T01280111  RH  091%=      5-min Rain = 0
KBWS 231045Z 00007KT 13/11 A3002 RMK A01 T01280112  RH  092%=      5-min Rain = 0
KBWS 231050Z 35007KT 13/11 A3003 RMK A01 T01270112  RH  092%=      5-min Rain = 0
KBWS 231055Z 35007KT 13/11 A3004 RMK A01 T01270113  RH  093%=      5-min Rain = 0
KBWS 231100Z 34009KT 13/11 A3004 RMK A01 T01270112  RH  092%=      5-min Rain = 0
KBWS 231105Z 34010KT 13/11 A3003 RMK A01 T01270112  RH  092%=      5-min Rain = 0
KBWS 231110Z 34012KT 13/11 A3003 RMK A01 T01260112  RH  093%=      5-min Rain = 0
KBWS 231115Z 34013G18KT 13/11 A3003 RMK A01 T01250111  RH  092%=      5-min Rain = 0
KBWS 231120Z 35012G17KT 12/11 A3003 RMK A01 T01240111  RH  093%=      5-min Rain = 0
KBWS 231125Z 35015G20KT 12/11 A3003 RMK A01 T01240111  RH  093%=      5-min Rain = 0
KBWS 231130Z 36013G18KT 13/11 A3003 RMK A01 T01250111  RH  093%=      5-min Rain = 0
KBWS 231135Z 36010G15KT 13/11 A3004 RMK A01 T01250111  RH  093%=      5-min Rain = 0
KBWS 231140Z 01010KT 13/11 A3005 RMK A01 T01250111  RH  093%=      5-min Rain = 0
KBWS 231145Z 01010G15KT 13/11 A3005 RMK A01 T01250110  RH  092%=      5-min Rain = 0
KBWS 231150Z 01010KT 12/11 A3004 RMK A01 T01240110  RH  093%=      5-min Rain = 0
KBWS 231155Z 01010KT 12/11 A3005 RMK A01 T01240110  RH  093%=      5-min Rain = 0
KBWS 231200Z 01010G15KT 12/11 A3005 RMK A01 T01240109  RH  092%=      5-min Rain = 0
KBWS 231205Z 36012KT 12/11 A3005 RMK A01 T01240109  RH  092%=      5-min Rain = 0
KBWS 231210Z 01012KT 12/11 A3005 RMK A01 T01240109  RH  092%=      5-min Rain = 0
KBWS 231215Z 02015KT 12/11 A3004 RMK A01 T01240108  RH  092%=      5-min Rain = 0
KBWS 231220Z 02015KT 12/11 A3004 RMK A01 T01240108  RH  092%=      5-min Rain = 0
KBWS 231225Z 03013G18KT 12/11 A3004 RMK A01 T01230109  RH  092%=      5-min Rain = 0
KBWS 231230Z 03012G17KT 12/11 A3003 RMK A01 T01230110  RH  093%=      5-min Rain = 0
KBWS 231235Z 03013KT 12/11 A3003 RMK A01 T01230110  RH  093%=      5-min Rain = 0
KBWS 231240Z 02015KT 12/11 A3003 RMK A01 T01230110  RH  093%=      5-min Rain = 0
KBWS 231245Z 02014G19KT 12/11 A3003 RMK A01 T01230110  RH  093%=      5-min Rain = 0
KBWS 231250Z 02014KT 12/11 A3003 RMK A01 T01230110  RH  093%=      5-min Rain = 0
KBWS 231255Z 02013KT 12/11 A3003 RMK A01 T01230110  RH  094%=      5-min Rain = 0
KBWS 231300Z 02013G18KT 12/11 A3004 RMK A01 T01230110  RH  093%=      5-min Rain = 0
KBWS 231305Z 02013KT 12/11 A3004 RMK A01 T01230110  RH  093%=      5-min Rain = 0
KBWS 231310Z 02012G18KT 12/11 A3004 RMK A01 T01230110  RH  094%=      5-min Rain = 0
KBWS 231315Z 01012KT 12/11 A3003 RMK A01 T01220110  RH  094%=      5-min Rain = 0
KBWS 231320Z 02014KT 12/11 A3003 RMK A01 T01220109  RH  094%=      5-min Rain = 0
KBWS 231325Z 02013KT 12/11 A3003 RMK A01 T01220109  RH  094%=      5-min Rain = 0
KBWS 231330Z 02013KT 12/11 A3003 RMK A01 T01230109  RH  093%=      5-min Rain = 0
KBWS 231335Z 01013KT 13/11 A3003 RMK A01 T01260111  RH  092%=      5-min Rain = 0
KBWS 231340Z 02013KT 13/11 A3004 RMK A01 T01280111  RH  091%=      5-min Rain = 0
KBWS 231345Z 02013G18KT 13/11 A3004 RMK A01 T01290112  RH  091%=      5-min Rain = 0
KBWS 231350Z 02015KT 13/11 A3005 RMK A01 T01300111  RH  090%=      5-min Rain = 0
KBWS 231355Z 03013G18KT 13/11 A3004 RMK A01 T01270111  RH  091%=      5-min Rain = 0
KBWS 231400Z 03014G19KT 13/11 A3004 RMK A01 T01250110  RH  092%=      5-min Rain = 0
KBWS 231405Z 03013KT 13/11 A3005 RMK A01 T01270112  RH  092%=      5-min Rain = 0
KBWS 231410Z 03014KT 13/11 A3005 RMK A01 T01290113  RH  091%=      5-min Rain = 0
KBWS 231415Z 04013KT 13/11 A3005 RMK A01 T01290113  RH  091%=      5-min Rain = 0
KBWS 231420Z 04014KT 13/11 A3006 RMK A01 T01300112  RH  091%=      5-min Rain = 0
KBWS 231425Z 04015KT 13/11 A3006 RMK A01 T01300112  RH  091%=      5-min Rain = 0
KBWS 231430Z 05014G19KT 13/11 A3006 RMK A01 T01300113  RH  091%=      5-min Rain = 0
KBWS 231435Z 04013G18KT 13/11 A3006 RMK A01 T01290112  RH  091%=      5-min Rain = 0
KBWS 231440Z 04012G17KT 13/11 A3006 RMK A01 T01300113  RH  091%=      5-min Rain = 0
KBWS 231445Z 03014KT 13/11 A3006 RMK A01 T01300113  RH  091%=      5-min Rain = 0
KBWS 231450Z 03013KT 13/12 A3006 RMK A01 T01330115  RH  091%=      5-min Rain = 0
KBWS 231455Z 02014KT 13/12 A3006 RMK A01 T01340115  RH  090%=      5-min Rain = 0
KBWS 231500Z 03014KT 14/12 A3006 RMK A01 T01350116  RH  090%=      5-min Rain = 0
KBWS 231505Z 02012KT 14/12 A3006 RMK A01 T01380117  RH  089%=      5-min Rain = 0
KBWS 231510Z 03012KT 14/12 A3006 RMK A01 T01390118  RH  089%=      5-min Rain = 0
KBWS 231515Z 01012G17KT 14/12 A3006 RMK A01 T01400118  RH  088%=      5-min Rain = 0
KBWS 231520Z 02012KT 14/12 A3006 RMK A01 T01390117  RH  088%=      5-min Rain = 0
KBWS 231525Z 02011KT 14/12 A3007 RMK A01 T01420118  RH  087%=      5-min Rain = 0
KBWS 231530Z 02012KT 15/12 A3007 RMK A01 T01450118  RH  085%=      5-min Rain = 0
KBWS 231535Z 03012KT 15/12 A3007 RMK A01 T01460119  RH  085%=      5-min Rain = 0
KBWS 231540Z 02011G16KT 15/12 A3007 RMK A01 T01480120  RH  085%=      5-min Rain = 0
KBWS 231545Z 03012KT 15/12 A3007 RMK A01 T01510119  RH  083%=      5-min Rain = 0
KBWS 231550Z 03012KT 15/12 A3007 RMK A01 T01500120  RH  084%=      5-min Rain = 0
KBWS 231555Z 03013KT 15/12 A3007 RMK A01 T01490118  RH  083%=      5-min Rain = 0
KBWS 231600Z 03013KT 15/12 A3007 RMK A01 T01470116  RH  083%=      5-min Rain = 0
KBWS 231605Z 04013KT 15/12 A3007 RMK A01 T01490117  RH  083%=      5-min Rain = 0
KBWS 231610Z 04012KT 15/12 A3007 RMK A01 T01500118  RH  083%=      5-min Rain = 0
KBWS 231615Z 04015KT 15/12 A3007 RMK A01 T01490115  RH  082%=      5-min Rain = 0
KBWS 231620Z 03014KT 15/12 A3007 RMK A01 T01500117  RH  082%=      5-min Rain = 0
KBWS 231625Z 04012KT 15/12 A3007 RMK A01 T01520118  RH  081%=      5-min Rain = 0
KBWS 231630Z 04011KT 15/12 A3007 RMK A01 T01520118  RH  082%=      5-min Rain = 0
KBWS 231635Z 04011G17KT 16/12 A3007 RMK A01 T01550120  RH  081%=      5-min Rain = 0
KBWS 231640Z 05013KT 16/12 A3007 RMK A01 T01550117  RH  080%=      5-min Rain = 0
KBWS 231645Z 06011KT 15/12 A3007 RMK A01 T01540118  RH  081%=      5-min Rain = 0
KBWS 231650Z 06011KT 15/12 A3007 RMK A01 T01530118  RH  081%=      5-min Rain = 0
KBWS 231655Z 05010KT 15/12 A3007 RMK A01 T01520117  RH  081%=      5-min Rain = 0
KBWS 231700Z 07009KT 15/12 A3007 RMK A01 T01510117  RH  082%=      5-min Rain = 0
KBWS 231705Z 06012KT 15/12 A3006 RMK A01 T01540119  RH  081%=      5-min Rain = 0
KBWS 231710Z 05012KT 16/12 A3006 RMK A01 T01550119  RH  081%=      5-min Rain = 0
KBWS 231715Z 06012KT 15/12 A3006 RMK A01 T01530118  RH  081%=      5-min Rain = 0
KBWS 231720Z 06011KT 15/12 A3006 RMK A01 T01520117  RH  081%=      5-min Rain = 0
KBWS 231725Z 06010KT 15/12 A3006 RMK A01 T01540121  RH  082%=      5-min Rain = 0
KBWS 231730Z 06012KT 16/12 A3006 RMK A01 T01550118  RH  080%=      5-min Rain = 0
KBWS 231735Z 05009KT 16/12 A3007 RMK A01 T01570118  RH  079%=      5-min Rain = 0
KBWS 231740Z 06010KT 16/12 A3007 RMK A01 T01560119  RH  080%=      5-min Rain = 0
KBWS 231745Z 05010KT 16/12 A3006 RMK A01 T01590118  RH  078%=      5-min Rain = 0
KBWS 231750Z 04010KT 16/12 A3006 RMK A01 T01630121  RH  078%=      5-min Rain = 0
KBWS 231755Z 04008KT 17/12 A3006 RMK A01 T01650120  RH  076%=      5-min Rain = 0
KBWS 231800Z 05008KT 16/12 A3006 RMK A01 T01640118  RH  076%=      5-min Rain = 0
KBWS 231805Z 03007KT 16/12 A3006 RMK A01 T01640118  RH  076%=      5-min Rain = 0
KBWS 231810Z 05007KT 17/12 A3006 RMK A01 T01660116  RH  073%=      5-min Rain = 0
KBWS 231815Z 06010KT 17/12 A3006 RMK A01 T01710115  RH  071%=      5-min Rain = 0
KBWS 231820Z 05009KT 17/11 A3006 RMK A01 T01720114  RH  070%=      5-min Rain = 0
KBWS 231825Z 05007G12KT 17/12 A3005 RMK A01 T01740116  RH  070%=      5-min Rain = 0
KBWS 231830Z 05008KT 17/12 A3005 RMK A01 T01730121  RH  073%=      5-min Rain = 0
KBWS 231835Z 05007G12KT 17/12 A3005 RMK A01 T01730120  RH  072%=      5-min Rain = 0
KBWS 231840Z 05009KT 17/12 A3005 RMK A01 T01690117  RH  073%=      5-min Rain = 0
KBWS 231845Z 06008KT 17/11 A3005 RMK A01 T01690114  RH  072%=      5-min Rain = 0
KBWS 231850Z 05009KT 17/11 A3005 RMK A01 T01690114  RH  071%=      5-min Rain = 0
KBWS 231855Z 05006KT 17/12 A3005 RMK A01 T01710116  RH  071%=      5-min Rain = 0
KBWS 231900Z 07008KT 17/12 A3005 RMK A01 T01740117  RH  071%=      5-min Rain = 0
KBWS 231905Z 06009KT 18/12 A3004 RMK A01 T01750120  RH  072%=      5-min Rain = 0
KBWS 231910Z 07008KT 17/12 A3005 RMK A01 T01740119  RH  071%=      5-min Rain = 0
KBWS 231915Z 07008KT 17/12 A3005 RMK A01 T01730121  RH  073%=      5-min Rain = 0
KBWS 231920Z 08008KT 17/12 A3005 RMK A01 T01710120  RH  073%=      5-min Rain = 0
KBWS 231925Z 06006KT 17/12 A3005 RMK A01 T01710120  RH  073%=      5-min Rain = 0
KBWS 231930Z 07007KT 17/12 A3005 RMK A01 T01710117  RH  072%=      5-min Rain = 0
KBWS 231935Z 09004KT 17/12 A3004 RMK A01 T01720118  RH  072%=      5-min Rain = 0
KBWS 231940Z 05004KT 18/12 A3004 RMK A01 T01750119  RH  071%=      5-min Rain = 0
KBWS 231945Z 03005KT 18/12 A3004 RMK A01 T01770121  RH  071%=      5-min Rain = 0
KBWS 231950Z 05005KT 18/12 A3004 RMK A01 T01800119  RH  069%=      5-min Rain = 0
KBWS 231955Z 04005KT 19/12 A3004 RMK A01 T01860120  RH  067%=      5-min Rain = 0
KBWS 232000Z 07005KT 19/12 A3004 RMK A01 T01890122  RH  066%=      5-min Rain = 0
KBWS 232005Z 07006G11KT 19/12 A3003 RMK A01 T01910119  RH  064%=      5-min Rain = 0
KBWS 232010Z 06006KT 19/12 A3003 RMK A01 T01900118  RH  064%=      5-min Rain = 0
KBWS 232015Z 04008KT 19/12 A3003 RMK A01 T01870120  RH  066%=      5-min Rain = 0
KBWS 232020Z 03008KT 19/12 A3003 RMK A01 T01890122  RH  066%=      5-min Rain = 0
KBWS 232025Z 04008KT 19/12 A3003 RMK A01 T01880122  RH  067%=      5-min Rain = 0
KBWS 232030Z 03007KT 19/12 A3003 RMK A01 T01860121  RH  067%=      5-min Rain = 0
KBWS 232035Z 05007KT 19/12 A3002 RMK A01 T01880122  RH  066%=      5-min Rain = 0
KBWS 232040Z 04009KT 19/12 A3002 RMK A01 T01860122  RH  068%=      5-min Rain = 0
KBWS 232045Z 05009KT 19/12 A3002 RMK A01 T01850124  RH  069%=      5-min Rain = 0
KBWS 232050Z 05009KT 19/13 A3002 RMK A01 T01860127  RH  070%=      5-min Rain = 0
KBWS 232055Z 05010KT 18/12 A3002 RMK A01 T01840123  RH  069%=      5-min Rain = 0
KBWS 232100Z 05008KT 19/13 A3001 RMK A01 T01850126  RH  070%=      5-min Rain = 0
KBWS 232105Z 02016KT 18/13 A3001 RMK A01 T01800134  RH  076%=      5-min Rain = 0
KBWS 232110Z 02016KT 17/13 A3001 RMK A01 T01720132  RH  079%=      5-min Rain = 0
KBWS 232115Z 02014KT 17/13 A3001 RMK A01 T01700132  RH  080%=      5-min Rain = 0
KBWS 232120Z 02016KT 17/13 A3001 RMK A01 T01670131  RH  081%=      5-min Rain = 0
KBWS 232125Z 02017G22KT 16/13 A3001 RMK A01 T01640128  RH  081%=      5-min Rain = 0
KBWS 232130Z 02017KT 16/13 A3001 RMK A01 T01620128  RH  081%=      5-min Rain = 0
KBWS 232135Z 02016KT 16/13 A3001 RMK A01 T01610127  RH  082%=      5-min Rain = 0
KBWS 232140Z 02016G21KT 16/13 A3001 RMK A01 T01620127  RH  081%=      5-min Rain = 0
KBWS 232145Z 01016KT 16/13 A3001 RMK A01 T01620127  RH  081%=      5-min Rain = 0
KBWS 232150Z 02014G19KT 16/13 A3001 RMK A01 T01610126  RH  081%=      5-min Rain = 0
KBWS 232155Z 01015G20KT 16/13 A3001 RMK A01 T01600125  RH  081%=      5-min Rain = 0
KBWS 232200Z 01017KT 16/13 A3001 RMK A01 T01590125  RH  081%=      5-min Rain = 0
KBWS 232205Z 01017KT 16/12 A3001 RMK A01 T01550123  RH  083%=      5-min Rain = 0
KBWS 232210Z 01016KT 16/12 A3001 RMK A01 T01550124  RH  083%=      5-min Rain = 0
KBWS 232215Z 01017KT 16/12 A3001 RMK A01 T01550123  RH  083%=      5-min Rain = 0
KBWS 232220Z 02015G20KT 15/12 A3001 RMK A01 T01510122  RH  084%=      5-min Rain = 0
KBWS 232225Z 02016KT 15/12 A3001 RMK A01 T01470120  RH  085%=      5-min Rain = 0
KBWS 232230Z 02015G20KT 15/12 A3001 RMK A01 T01460119  RH  086%=      5-min Rain = 0
KBWS 232235Z 02016G21KT 14/12 A3001 RMK A01 T01440118  RH  086%=      5-min Rain = 0
KBWS 232240Z 02017KT 14/12 A3001 RMK A01 T01440117  RH  085%=      5-min Rain = 0
KBWS 232245Z 02017KT 14/12 A30 RMK A01 T01440117  RH  086%=      5-min Rain = 0
KBWS 232250Z 01016G21KT 14/12 A30 RMK A01 T01440118  RH  086%=      5-min Rain = 0
KBWS 232255Z 01016G22KT 14/12 A30 RMK A01 T01410115  RH  086%=      5-min Rain = 0
KBWS 232300Z 01016KT 14/12 A30 RMK A01 T01410115  RH  086%=      5-min Rain = 0
KBWS 232305Z 01015KT 14/11 A30 RMK A01 T01380114  RH  087%=      5-min Rain = 0
KBWS 232310Z 01016KT 14/11 A3001 RMK A01 T01370113  RH  087%=      5-min Rain = 0
KBWS 232315Z 01015G20KT 14/11 A3001 RMK A01 T01360113  RH  087%=      5-min Rain = 0
KBWS 232320Z 01016KT 13/11 A30 RMK A01 T01340112  RH  088%=      5-min Rain = 0
KBWS 232325Z 02016G21KT 13/11 A30 RMK A01 T01330111  RH  088%=      5-min Rain = 0
KBWS 232330Z 01014G20KT 13/11 A3001 RMK A01 T01340112  RH  088%=      5-min Rain = 0
KBWS 232335Z 02014G20KT 14/11 A3001 RMK A01 T01350111  RH  087%=      5-min Rain = 0
KBWS 232340Z 02015G21KT 13/11 A3001 RMK A01 T01340111  RH  087%=      5-min Rain = 0
KBWS 232345Z 01015G20KT 13/11 A3001 RMK A01 T01320109  RH  088%=      5-min Rain = 0
KBWS 232350Z 02015G21KT 13/11 A3002 RMK A01 T01310108  RH  087%=      5-min Rain = 0
KBWS 232355Z 02015G20KT 13/11 A3002 RMK A01 T01320107  RH  087%=      5-min Rain = 0
KBWS 240000Z 02015G20KT 13/11 A3002 RMK A01 T01320108  RH  087%=      5-min Rain = 0
KBWS 240005Z 02015G21KT 13/11 A3001 RMK A01 T01330108  RH  086%=      5-min Rain = 0
KBWS 240010Z 02015G20KT 13/11 A3001 RMK A01 T01330107  RH  086%=      5-min Rain = 0
KBWS 240015Z 02016KT 13/11 A3002 RMK A01 T01340107  RH  086%=      5-min Rain = 0
KBWS 240020Z 02015KT 13/11 A3002 RMK A01 T01340108  RH  086%=      5-min Rain = 0
KBWS 240025Z 02014KT 13/11 A3001 RMK A01 T01340107  RH  085%=      5-min Rain = 0
KBWS 240030Z 02014KT 13/11 A3001 RMK A01 T01340108  RH  085%=      5-min Rain = 0
KBWS 240035Z 02012KT 14/11 A3002 RMK A01 T01350109  RH  086%=      5-min Rain = 0
KBWS 240040Z 02014G20KT 14/11 A3002 RMK A01 T01360109  RH  085%=      5-min Rain = 0
KBWS 240045Z 02014KT 14/11 A3002 RMK A01 T01360106  RH  084%=      5-min Rain = 0
KBWS 240050Z 02016KT 14/11 A3002 RMK A01 T01360105  RH  083%=      5-min Rain = 0
KBWS 240055Z 02015KT 14/11 A3002 RMK A01 T01360106  RH  084%=      5-min Rain = 0
KBWS 240100Z 02013KT 14/11 A3002 RMK A01 T01360107  RH  084%=      5-min Rain = 0
KBWS 240105Z 02015KT 14/11 A3002 RMK A01 T01360107  RH  084%=      5-min Rain = 0
KBWS 240110Z 01013KT 14/11 A3001 RMK A01 T01360107  RH  084%=      5-min Rain = 0
KBWS 240115Z 01014KT 14/11 A3001 RMK A01 T01360106  RH  084%=      5-min Rain = 0
KBWS 240120Z 01012G18KT 14/11 A3001 RMK A01 T01350106  RH  084%=      5-min Rain = 0
KBWS 240125Z 01013G18KT 14/11 A3001 RMK A01 T01350105  RH  084%=      5-min Rain = 0
KBWS 240130Z 01011KT 13/11 A30 RMK A01 T01340105  RH  084%=      5-min Rain = 0
KBWS 240135Z 02012KT 13/10 A30 RMK A01 T01340104  RH  084%=      5-min Rain = 0
KBWS 240140Z 02010KT 13/10 A3001 RMK A01 T01330104  RH  084%=      5-min Rain = 0
KBWS 240145Z 03010KT 13/10 A3002 RMK A01 T01330104  RH  084%=      5-min Rain = 0
KBWS 240150Z 03010G15KT 13/11 A3002 RMK A01 T01320105  RH  085%=      5-min Rain = 0
KBWS 240155Z 03010KT 13/11 A3002 RMK A01 T01320105  RH  085%=      5-min Rain = 0
KBWS 240200Z 03012KT 13/10 A3002 RMK A01 T01320103  RH  084%=      5-min Rain = 0
KBWS 240205Z 04010KT 13/10 A3003 RMK A01 T01310103  RH  085%=      5-min Rain = 0
KBWS 240210Z 03011KT 13/10 A3003 RMK A01 T01310103  RH  085%=      5-min Rain = 0
KBWS 240215Z 03012KT 13/10 A3002 RMK A01 T01300103  RH  085%=      5-min Rain = 0
KBWS 240220Z 02012KT 13/10 A3001 RMK A01 T01290103  RH  085%=      5-min Rain = 0
KBWS 240225Z 02011KT 13/10 A3001 RMK A01 T01290103  RH  086%=      5-min Rain = 0
KBWS 240230Z 02010KT 13/10 A3002 RMK A01 T01280103  RH  086%=      5-min Rain = 0
KBWS 240235Z 03011KT 13/10 A3003 RMK A01 T01280104  RH  087%=      5-min Rain = 0
KBWS 240240Z 02012KT 13/10 A3002 RMK A01 T01270103  RH  086%=      5-min Rain = 0
KBWS 240245Z 01011G16KT 13/10 A3002 RMK A01 T01270102  RH  086%=      5-min Rain = 0
KBWS 240250Z 01010KT 13/10 A3003 RMK A01 T01260101  RH  086%=      5-min Rain = 0
KBWS 240255Z 01010KT 13/10 A3003 RMK A01 T01260101  RH  086%=      5-min Rain = 0
KBWS 240300Z 01012KT 13/10 A3002 RMK A01 T01250101  RH  087%=      5-min Rain = 0
KBWS 240305Z 01012KT 13/10 A3002 RMK A01 T01250101  RH  087%=      5-min Rain = 0
KBWS 240310Z 01011KT 12/10 A3002 RMK A01 T01240100  RH  087%=      5-min Rain = 0
KBWS 240315Z 01011KT 12/10 A3002 RMK A01 T01240100  RH  086%=      5-min Rain = 0
KBWS 240320Z 02009KT 12/10 A3003 RMK A01 T01240100  RH  086%=      5-min Rain = 0
KBWS 240325Z 02010KT 12/10 A3004 RMK A01 T01240099  RH  086%=      5-min Rain = 0
KBWS 240330Z 02009KT 13/10 A3004 RMK A01 T01250099  RH  085%=      5-min Rain = 0
KBWS 240335Z 04007KT 13/10 A3006 RMK A01 T01260100  RH  086%=      5-min Rain = 0
KBWS 240340Z 06008KT 13/10 A3007 RMK A01 T01270102  RH  086%=      5-min Rain = 0
KBWS 240345Z 06008KT 13/10 A3007 RMK A01 T01270103  RH  087%=      5-min Rain = 0
KBWS 240350Z 05008KT 13/10 A3006 RMK A01 T01260102  RH  087%=      5-min Rain = 0
KBWS 240355Z 04007KT 13/10 A3006 RMK A01 T01260103  RH  087%=      5-min Rain = 0
KBWS 240400Z 02007KT 12/10 A3006 RMK A01 T01240102  RH  087%=      5-min Rain = 0
KBWS 240405Z 02006KT 13/10 A3006 RMK A01 T01250100  RH  087%=      5-min Rain = 0
KBWS 240410Z 02006KT 12/10 A3005 RMK A01 T01240101  RH  087%=      5-min Rain = 0
KBWS 240415Z 03006KT 12/10 A3005 RMK A01 T01230101  RH  088%=      5-min Rain = 0
KBWS 240420Z 03006KT 12/10 A3005 RMK A01 T01230101  RH  088%=      5-min Rain = 0
KBWS 240425Z 03006KT 12/10 A3004 RMK A01 T01220102  RH  089%=      5-min Rain = 0
KBWS 240430Z 02008KT 12/10 A3003 RMK A01 T01220102  RH  089%=      5-min Rain = 0
KBWS 240435Z 02009KT 12/10 A3002 RMK A01 T01220102  RH  089%=      5-min Rain = 0
KBWS 240440Z 02009KT 12/10 A3002 RMK A01 T01210102  RH  089%=      5-min Rain = 0
KBWS 240445Z 01009KT 12/10 A3001 RMK A01 T01210101  RH  089%=      5-min Rain = 0
KBWS 240450Z 02010KT 12/10 A3001 RMK A01 T01200100  RH  089%=      5-min Rain = 0
KBWS 240455Z 02010KT 12/10 A3002 RMK A01 T01200099  RH  089%=      5-min Rain = 0

Page generated in 0.0091 seconds.